createdAt,value
2023-03-26T00:00:56.686Z,93174.84
2023-03-26T00:01:53.379Z,93141.59
2023-03-26T00:02:50.014Z,93176.19
2023-03-26T00:03:53.536Z,93175.63
2023-03-26T00:04:51.157Z,93171.97
2023-03-26T00:05:48.428Z,93175.75
2023-03-26T00:06:48.956Z,93177.38
2023-03-26T00:07:46.224Z,93173.88
2023-03-26T00:08:45.231Z,93135.91
2023-03-26T00:09:41.963Z,93175.13
2023-03-26T00:10:40.225Z,93173.53
2023-03-26T00:11:37.391Z,93173.19
2023-03-26T00:12:34.161Z,93167.13
2023-03-26T00:13:32.203Z,93176.25
2023-03-26T00:14:30.057Z,93172.59
2023-03-26T00:15:26.664Z,93162.84
2023-03-26T00:16:25.108Z,93164.25
2023-03-26T00:17:22.092Z,93155.94
2023-03-26T00:18:21.532Z,93135.19
2023-03-26T00:19:18.141Z,93157.06
2023-03-26T00:20:14.832Z,93155.78
2023-03-26T00:21:14.832Z,93148.09
2023-03-26T00:22:13.656Z,93118.41
2023-03-26T00:23:10.280Z,93147.75
2023-03-26T00:24:16.322Z,93160.69
2023-03-26T00:25:13.964Z,93163.22
2023-03-26T00:26:11.274Z,93142.00
2023-03-26T00:27:08.806Z,93167.47
2023-03-26T00:28:07.812Z,93162.31
2023-03-26T00:29:06.960Z,93169.28
2023-03-26T00:30:05.168Z,93170.06
2023-03-26T00:31:04.659Z,93175.19
2023-03-26T00:32:01.855Z,93171.25
2023-03-26T00:32:58.558Z,93169.22
2023-03-26T00:33:55.859Z,93143.00
2023-03-26T00:34:52.666Z,93161.34
2023-03-26T00:35:54.767Z,93175.22
2023-03-26T00:36:54.711Z,93171.31
2023-03-26T00:37:51.573Z,93164.44
2023-03-26T00:38:48.704Z,93169.31
2023-03-26T00:39:49.201Z,93162.03
2023-03-26T00:40:48.059Z,93109.69
2023-03-26T00:41:45.025Z,93172.06
2023-03-26T00:42:42.561Z,93148.59
2023-03-26T00:43:39.253Z,93174.84
2023-03-26T00:44:35.884Z,93175.84
2023-03-26T00:45:32.683Z,93168.38
2023-03-26T00:46:31.603Z,93166.41
2023-03-26T00:47:29.276Z,93172.59
2023-03-26T00:48:44.012Z,93181.78
2023-03-26T00:49:41.448Z,93137.25
2023-03-26T00:50:38.081Z,93165.56
2023-03-26T00:51:35.087Z,93188.38
2023-03-26T00:52:31.877Z,93178.66
2023-03-26T00:53:28.475Z,93190.13
2023-03-26T00:54:25.176Z,93192.97
2023-03-26T00:55:23.469Z,93192.81
2023-03-26T00:56:20.457Z,93200.50
2023-03-26T00:57:28.905Z,93175.25
2023-03-26T00:58:31.397Z,93194.91
2023-03-26T00:59:30.364Z,93196.34
2023-03-26T01:00:36.495Z,93201.31
2023-03-26T01:01:33.340Z,93196.97
2023-03-26T01:02:30.037Z,93197.28
2023-03-26T01:03:33.821Z,93199.88
2023-03-26T01:04:34.955Z,93188.97
2023-03-26T01:05:34.626Z,93192.69
2023-03-26T01:06:35.877Z,93194.88
2023-03-26T01:07:35.241Z,93199.78
2023-03-26T01:08:35.646Z,93198.47
2023-03-26T01:09:36.537Z,93200.81
2023-03-26T01:10:38.709Z,93203.38
2023-03-26T01:11:35.961Z,93197.00
2023-03-26T01:12:32.580Z,93192.59
2023-03-26T01:13:33.145Z,93174.91
2023-03-26T01:14:30.132Z,93192.44
2023-03-26T01:15:29.940Z,93194.53
2023-03-26T01:16:39.331Z,93203.84
2023-03-26T01:17:37.951Z,93201.91
2023-03-26T01:18:40.989Z,93216.63
2023-03-26T01:20:15.217Z,93209.56
2023-03-26T01:21:14.701Z,93211.47
2023-03-26T01:22:15.513Z,93204.72
2023-03-26T01:23:17.660Z,93210.59
2023-03-26T01:24:14.351Z,93206.78
2023-03-26T01:25:11.149Z,93211.53
2023-03-26T01:26:32.709Z,93205.38
2023-03-26T01:27:41.191Z,93208.41
2023-03-26T01:28:41.374Z,93196.78
2023-03-26T01:29:56.451Z,93216.16
2023-03-26T01:31:29.841Z,93214.81
2023-03-26T01:33:00.864Z,93217.63
2023-03-26T01:34:12.430Z,93107.66
2023-03-26T01:35:14.638Z,93184.44
2023-03-26T01:36:42.614Z,93214.59
2023-03-26T01:37:39.223Z,93210.06
2023-03-26T01:39:01.599Z,93212.13
2023-03-26T01:40:06.199Z,93204.41
2023-03-26T01:41:14.399Z,93206.72
2023-03-26T01:42:16.191Z,93215.28
2023-03-26T01:43:40.346Z,93200.94
2023-03-26T01:44:44.955Z,93203.44
2023-03-26T01:45:46.210Z,93203.09
2023-03-26T01:46:44.770Z,93191.97
2023-03-26T01:47:43.613Z,93201.06
2023-03-26T01:48:45.639Z,93163.06
2023-03-26T01:49:42.301Z,93207.19
2023-03-26T01:50:38.925Z,93181.72
2023-03-26T01:51:36.289Z,93221.91
2023-03-26T01:52:33.040Z,93209.47
2023-03-26T01:53:30.285Z,93199.28
2023-03-26T01:54:30.314Z,93202.59
2023-03-26T01:55:56.295Z,93205.69
2023-03-26T01:57:14.932Z,93207.69
2023-03-26T01:58:30.141Z,93161.19
2023-03-26T01:59:45.312Z,93206.50
2023-03-26T02:00:54.913Z,93107.38
2023-03-26T02:02:14.560Z,93209.97
2023-03-26T02:03:38.060Z,93211.75
2023-03-26T02:04:57.743Z,93214.94
2023-03-26T02:06:06.333Z,93219.25
2023-03-26T02:07:09.378Z,93168.13
2023-03-26T02:08:35.415Z,93215.59
2023-03-26T02:09:39.312Z,93217.72
2023-03-26T02:10:41.723Z,93212.53
2023-03-26T02:11:40.797Z,93223.16
2023-03-26T02:12:37.910Z,93219.50
2023-03-26T02:13:34.723Z,93215.97
2023-03-26T02:14:31.413Z,93218.81
2023-03-26T02:15:28.139Z,93189.53
2023-03-26T02:16:24.833Z,93179.75
2023-03-26T02:17:24.352Z,93213.91
2023-03-26T02:18:24.338Z,93210.13
2023-03-26T02:19:21.833Z,93213.25
2023-03-26T02:20:20.207Z,93211.72
2023-03-26T02:21:22.588Z,93224.50
2023-03-26T02:22:19.258Z,93207.38
2023-03-26T02:23:16.196Z,93214.38
2023-03-26T02:24:12.852Z,93212.03
2023-03-26T02:25:14.867Z,93150.66
2023-03-26T02:26:11.728Z,93186.00
2023-03-26T02:27:09.592Z,93210.53
2023-03-26T02:28:06.403Z,93205.00
2023-03-26T02:29:03.889Z,93187.72
2023-03-26T02:30:01.093Z,93200.78
2023-03-26T02:30:57.828Z,93204.94
2023-03-26T02:31:54.573Z,93178.28
2023-03-26T02:32:54.234Z,93205.88
2023-03-26T02:33:51.106Z,93201.69
2023-03-26T02:34:47.893Z,93205.75
2023-03-26T02:35:45.989Z,93169.50
2023-03-26T02:36:45.215Z,93152.66
2023-03-26T02:37:42.245Z,93175.56
2023-03-26T02:38:38.898Z,93204.13
2023-03-26T02:39:36.373Z,93204.22
2023-03-26T02:40:33.002Z,93202.22
2023-03-26T02:41:29.797Z,93210.28
2023-03-26T02:42:26.888Z,93183.56
2023-03-26T02:43:23.721Z,93214.91
2023-03-26T02:44:20.449Z,93221.03
2023-03-26T02:45:17.289Z,93195.22
2023-03-26T02:46:14.151Z,93216.19
2023-03-26T02:47:10.855Z,93217.47
2023-03-26T02:48:08.133Z,93220.19
2023-03-26T02:49:04.775Z,93215.19
2023-03-26T02:50:01.656Z,93218.66
2023-03-26T02:50:58.528Z,93209.75
2023-03-26T02:51:56.353Z,93167.88
2023-03-26T02:52:53.460Z,93210.91
2023-03-26T02:53:50.031Z,93223.09
2023-03-26T02:54:47.054Z,93224.91
2023-03-26T02:55:43.654Z,93226.41
2023-03-26T02:56:40.386Z,93230.13
2023-03-26T02:57:37.006Z,93229.34
2023-03-26T02:58:33.736Z,93230.63
2023-03-26T02:59:30.437Z,93234.59
2023-03-26T03:00:27.080Z,93238.75
2023-03-26T03:01:23.831Z,93230.38
2023-03-26T03:02:20.665Z,93183.50
2023-03-26T03:03:17.534Z,93185.91
2023-03-26T03:04:14.215Z,93228.25
2023-03-26T03:05:11.795Z,93184.59
2023-03-26T03:06:09.107Z,93238.28
2023-03-26T03:07:05.808Z,93200.47
2023-03-26T03:08:03.470Z,93168.28
2023-03-26T03:09:02.720Z,93241.81
2023-03-26T03:10:02.406Z,93235.72
2023-03-26T03:11:08.753Z,93230.47
2023-03-26T03:12:05.875Z,93228.03
2023-03-26T03:13:04.123Z,93240.09
2023-03-26T03:14:00.806Z,93239.78
2023-03-26T03:14:57.428Z,93234.56
2023-03-26T03:15:55.046Z,93245.25
2023-03-26T03:16:51.823Z,93177.19
2023-03-26T03:17:48.518Z,93195.03
2023-03-26T03:18:45.144Z,93248.41
2023-03-26T03:19:41.735Z,93248.97
2023-03-26T03:20:38.474Z,93237.66
2023-03-26T03:21:35.104Z,93259.88
2023-03-26T03:22:31.675Z,93230.41
2023-03-26T03:23:28.787Z,93258.84
2023-03-26T03:24:27.202Z,93221.69
2023-03-26T03:25:26.174Z,93270.28
2023-03-26T03:26:27.664Z,93262.22
2023-03-26T03:27:26.137Z,93255.78
2023-03-26T03:28:23.905Z,93257.84
2023-03-26T03:29:20.541Z,93264.97
2023-03-26T03:30:17.257Z,93226.94
2023-03-26T03:31:13.884Z,93266.19
2023-03-26T03:32:10.641Z,93264.84
2023-03-26T03:33:07.319Z,93269.84
2023-03-26T03:34:04.075Z,93269.59
2023-03-26T03:35:00.826Z,93220.97
2023-03-26T03:35:59.412Z,93258.53
2023-03-26T03:36:56.346Z,93262.16
2023-03-26T03:37:53.230Z,93257.38
2023-03-26T03:38:50.794Z,93258.84
2023-03-26T03:39:47.581Z,93261.06
2023-03-26T03:40:44.369Z,93222.72
2023-03-26T03:41:41.399Z,93257.25
2023-03-26T03:42:38.371Z,93252.84
2023-03-26T03:43:35.260Z,93259.84
2023-03-26T03:44:31.951Z,93256.53
2023-03-26T03:45:28.572Z,93260.88
2023-03-26T03:46:25.448Z,93267.03
2023-03-26T03:47:23.114Z,93251.53
2023-03-26T03:48:19.977Z,93267.69
2023-03-26T03:49:16.553Z,93256.13
2023-03-26T03:50:13.154Z,93226.97
2023-03-26T03:51:09.754Z,93260.44
2023-03-26T03:52:06.875Z,93262.69
2023-03-26T03:53:05.702Z,93264.66
2023-03-26T03:54:03.944Z,93249.88
2023-03-26T03:55:00.640Z,93262.47
2023-03-26T03:55:57.642Z,93266.75
2023-03-26T03:56:54.512Z,93241.59
2023-03-26T03:57:52.626Z,93269.50
2023-03-26T03:58:49.306Z,93268.31
2023-03-26T03:59:47.973Z,93269.19
2023-03-26T04:00:45.024Z,93273.06
2023-03-26T04:01:46.837Z,93268.31
2023-03-26T04:02:46.282Z,93270.63
2023-03-26T04:03:46.531Z,93270.63
2023-03-26T04:04:46.439Z,93273.91
2023-03-26T04:05:49.500Z,93277.88
2023-03-26T04:06:46.239Z,93266.81
2023-03-26T04:07:43.429Z,93280.16
2023-03-26T04:08:40.398Z,93272.34
2023-03-26T04:09:36.991Z,93266.38
2023-03-26T04:10:33.690Z,93273.09
2023-03-26T04:11:30.312Z,93248.53
2023-03-26T04:12:28.483Z,93281.56
2023-03-26T04:13:25.341Z,93278.91
2023-03-26T04:14:22.074Z,93256.00
2023-03-26T04:15:18.682Z,93277.72
2023-03-26T04:16:15.416Z,93277.78
2023-03-26T04:17:13.673Z,93290.22
2023-03-26T04:18:10.657Z,93161.16
2023-03-26T04:19:08.577Z,93298.69
2023-03-26T04:20:06.925Z,93299.16
2023-03-26T04:21:05.321Z,93273.88
2023-03-26T04:22:02.427Z,93302.47
2023-03-26T04:22:59.210Z,93303.63
2023-03-26T04:23:56.485Z,93277.84
2023-03-26T04:24:54.549Z,93314.72
2023-03-26T04:25:54.641Z,93278.75
2023-03-26T04:26:51.700Z,93317.56
2023-03-26T04:27:48.803Z,93323.84
2023-03-26T04:28:53.371Z,93314.19
2023-03-26T04:29:50.676Z,93331.38
2023-03-26T04:30:48.913Z,93333.47
2023-03-26T04:31:47.196Z,93311.34
2023-03-26T04:32:45.028Z,93319.31
2023-03-26T04:33:46.940Z,93325.06
2023-03-26T04:34:46.187Z,93325.31
2023-03-26T04:35:44.783Z,93317.69
2023-03-26T04:36:46.328Z,93332.16
2023-03-26T04:37:44.499Z,93328.28
2023-03-26T04:38:43.912Z,93288.72
2023-03-26T04:39:40.494Z,93330.97
2023-03-26T04:40:39.099Z,93289.75
2023-03-26T04:41:35.854Z,93338.38
2023-03-26T04:42:33.400Z,93336.63
2023-03-26T04:43:31.206Z,93343.28
2023-03-26T04:44:30.501Z,93346.38
2023-03-26T04:45:27.532Z,93347.31
2023-03-26T04:46:24.268Z,93320.13
2023-03-26T04:47:21.156Z,93303.44
2023-03-26T04:48:17.731Z,93357.19
2023-03-26T04:49:14.652Z,93362.16
2023-03-26T04:50:11.807Z,93359.47
2023-03-26T04:51:09.927Z,93337.69
2023-03-26T04:52:06.825Z,93360.22
2023-03-26T04:53:04.798Z,93360.78
2023-03-26T04:54:02.733Z,93358.97
2023-03-26T04:55:00.354Z,93333.16
2023-03-26T04:56:02.033Z,93347.72
2023-03-26T04:57:06.110Z,93355.03
2023-03-26T04:58:05.640Z,93366.41
2023-03-26T04:59:03.033Z,93309.28
2023-03-26T04:59:59.685Z,93366.50
2023-03-26T05:00:57.427Z,93371.38
2023-03-26T05:01:54.266Z,93369.16
2023-03-26T05:02:51.193Z,93319.09
2023-03-26T05:03:47.911Z,93336.13
2023-03-26T05:04:49.948Z,93380.22
2023-03-26T05:05:46.887Z,93373.47
2023-03-26T05:06:43.597Z,93375.34
2023-03-26T05:07:41.822Z,93382.22
2023-03-26T05:08:38.514Z,93373.25
2023-03-26T05:09:35.148Z,93383.31
2023-03-26T05:10:31.884Z,93379.66
2023-03-26T05:11:28.543Z,93361.66
2023-03-26T05:12:25.506Z,93378.56
2023-03-26T05:13:23.496Z,93366.41
2023-03-26T05:14:20.740Z,93380.22
2023-03-26T05:15:17.503Z,93369.41
2023-03-26T05:16:14.190Z,93389.63
2023-03-26T05:17:15.320Z,93388.19
2023-03-26T05:18:11.994Z,93387.31
2023-03-26T05:19:09.035Z,93386.31
2023-03-26T05:20:06.201Z,93366.31
2023-03-26T05:21:03.296Z,93321.34
2023-03-26T05:21:59.954Z,93398.81
2023-03-26T05:22:56.953Z,93371.63
2023-03-26T05:23:53.569Z,93392.94
2023-03-26T05:24:50.120Z,93389.38
2023-03-26T05:25:47.236Z,93382.84
2023-03-26T05:26:43.898Z,93384.06
2023-03-26T05:27:40.528Z,93394.03
2023-03-26T05:28:37.284Z,93367.41
2023-03-26T05:29:33.894Z,93393.47
2023-03-26T05:30:30.709Z,93391.59
2023-03-26T05:31:28.073Z,93395.34
2023-03-26T05:32:24.700Z,93386.44
2023-03-26T05:33:22.572Z,93390.41
2023-03-26T05:34:20.723Z,93392.53
2023-03-26T05:35:18.479Z,93382.47
2023-03-26T05:36:16.347Z,93388.78
2023-03-26T05:37:13.761Z,93388.22
2023-03-26T05:38:10.900Z,93297.75
2023-03-26T05:39:08.644Z,93385.69
2023-03-26T05:40:11.796Z,93382.94
2023-03-26T05:41:10.493Z,93367.75
2023-03-26T05:42:07.916Z,93383.53
2023-03-26T05:43:04.765Z,93381.28
2023-03-26T05:44:01.454Z,93381.09
2023-03-26T05:44:58.065Z,93377.06
2023-03-26T05:45:54.719Z,93368.38
2023-03-26T05:46:51.482Z,93386.72
2023-03-26T05:47:49.773Z,93382.22
2023-03-26T05:48:46.713Z,93384.81
2023-03-26T05:49:43.284Z,93337.97
2023-03-26T05:50:39.869Z,93379.66
2023-03-26T05:51:36.550Z,93378.19
2023-03-26T05:52:33.233Z,93376.25
2023-03-26T05:53:30.475Z,93378.81
2023-03-26T05:54:27.302Z,93372.56
2023-03-26T05:55:23.936Z,93376.94
2023-03-26T05:56:20.739Z,93372.72
2023-03-26T05:57:18.592Z,93370.34
2023-03-26T05:58:15.542Z,93381.66
2023-03-26T05:59:12.133Z,93244.50
2023-03-26T06:00:10.992Z,93375.47
2023-03-26T06:01:17.052Z,93374.56
2023-03-26T06:02:13.790Z,93390.84
2023-03-26T06:03:12.727Z,93374.75
2023-03-26T06:04:11.675Z,93376.25
2023-03-26T06:05:10.014Z,93372.72
2023-03-26T06:06:09.263Z,93372.97
2023-03-26T06:07:10.092Z,93381.31
2023-03-26T06:08:07.285Z,93372.09
2023-03-26T06:09:04.550Z,93380.00
2023-03-26T06:10:01.787Z,93383.00
2023-03-26T06:11:08.070Z,93382.06
2023-03-26T06:12:06.239Z,93383.09
2023-03-26T06:13:04.339Z,93378.59
2023-03-26T06:14:01.164Z,93381.25
2023-03-26T06:14:57.801Z,93380.91
2023-03-26T06:15:54.503Z,93385.59
2023-03-26T06:16:51.126Z,93383.56
2023-03-26T06:17:48.202Z,93378.31
2023-03-26T06:18:45.177Z,93380.81
2023-03-26T06:19:41.803Z,93383.88
2023-03-26T06:20:40.781Z,93385.06
2023-03-26T06:21:37.374Z,93391.94
2023-03-26T06:22:33.950Z,93397.25
2023-03-26T06:23:30.875Z,93390.88
2023-03-26T06:24:27.561Z,93372.19
2023-03-26T06:25:24.163Z,93392.00
2023-03-26T06:26:21.507Z,93398.22
2023-03-26T06:27:18.152Z,93389.56
2023-03-26T06:28:15.950Z,93370.63
2023-03-26T06:29:16.179Z,93392.59
2023-03-26T06:30:13.028Z,93326.72
2023-03-26T06:31:09.770Z,93396.81
2023-03-26T06:32:18.470Z,93397.09
2023-03-26T06:33:16.584Z,93352.59
2023-03-26T06:34:13.276Z,93393.09
2023-03-26T06:35:11.199Z,93387.50
2023-03-26T06:36:08.325Z,93385.31
2023-03-26T06:37:04.961Z,93387.19
2023-03-26T06:38:02.897Z,93387.38
2023-03-26T06:38:59.584Z,93337.97
2023-03-26T06:39:56.302Z,93386.59
2023-03-26T06:40:53.243Z,93382.56
2023-03-26T06:41:50.001Z,93355.16
2023-03-26T06:43:07.907Z,93375.09
2023-03-26T06:44:03.418Z,93386.75
2023-03-26T06:45:00.059Z,93382.09
2023-03-26T06:45:56.974Z,93381.81
2023-03-26T06:46:53.655Z,93384.06
2023-03-26T06:47:50.296Z,93394.13
2023-03-26T06:48:46.938Z,93392.44
2023-03-26T06:49:45.359Z,93394.47
2023-03-26T06:50:42.153Z,93390.63
2023-03-26T06:51:40.714Z,93380.94
2023-03-26T06:52:37.794Z,93399.72
2023-03-26T06:53:34.505Z,93392.06
2023-03-26T06:54:31.322Z,93391.03
2023-03-26T06:55:28.728Z,93397.72
2023-03-26T06:56:25.407Z,93397.09
2023-03-26T06:57:22.281Z,93391.47
2023-03-26T06:58:18.921Z,93400.94
2023-03-26T06:59:15.507Z,93408.09
2023-03-26T07:00:13.591Z,93396.16
2023-03-26T07:01:10.476Z,93403.81
2023-03-26T07:02:07.579Z,93396.09
2023-03-26T07:03:05.631Z,93341.59
2023-03-26T07:04:02.276Z,93395.69
2023-03-26T07:04:59.394Z,93392.66
2023-03-26T07:05:56.120Z,93396.38
2023-03-26T07:06:52.709Z,93395.72
2023-03-26T07:07:49.339Z,93394.25
2023-03-26T07:08:46.052Z,93389.72
2023-03-26T07:09:42.572Z,93400.34
2023-03-26T07:10:39.330Z,93401.16
2023-03-26T07:11:35.915Z,93396.88
2023-03-26T07:12:32.548Z,93399.47
2023-03-26T07:13:29.126Z,93390.31
2023-03-26T07:14:27.955Z,93393.28
2023-03-26T07:15:24.769Z,93397.78
2023-03-26T07:16:22.492Z,93395.41
2023-03-26T07:17:19.148Z,93403.44
2023-03-26T07:18:15.977Z,93405.19
2023-03-26T07:19:12.534Z,93398.78
2023-03-26T07:20:10.765Z,93393.56
2023-03-26T07:21:07.965Z,93395.81
2023-03-26T07:22:04.955Z,93400.09
2023-03-26T07:23:01.930Z,93397.97
2023-03-26T07:23:58.871Z,93400.47
2023-03-26T07:24:55.965Z,93392.03
2023-03-26T07:25:52.934Z,93394.50
2023-03-26T07:27:06.658Z,93397.69
2023-03-26T07:28:24.353Z,93354.59
2023-03-26T07:29:26.631Z,93391.19
2023-03-26T07:30:51.194Z,93388.59
2023-03-26T07:32:03.817Z,93388.66
2023-03-26T07:33:05.853Z,93384.28
2023-03-26T07:34:26.340Z,93390.38
2023-03-26T07:35:29.904Z,93390.00
2023-03-26T07:36:48.392Z,93386.94
2023-03-26T07:37:54.134Z,93395.66
2023-03-26T07:38:50.814Z,93385.28
2023-03-26T07:40:19.017Z,93392.56
2023-03-26T07:41:31.963Z,93396.09
2023-03-26T07:42:31.819Z,93397.97
2023-03-26T07:43:56.048Z,93394.13
2023-03-26T07:45:03.377Z,93400.34
2023-03-26T07:46:01.123Z,93394.22
2023-03-26T07:47:02.271Z,93401.28
2023-03-26T07:47:59.126Z,93393.31
2023-03-26T07:48:58.296Z,93358.53
2023-03-26T07:49:57.860Z,93401.59
2023-03-26T07:50:56.340Z,93405.22
2023-03-26T07:51:53.407Z,93399.50
2023-03-26T07:52:50.459Z,93380.69
2023-03-26T07:53:47.341Z,93403.00
2023-03-26T07:54:44.330Z,93412.13
2023-03-26T07:55:52.922Z,93410.28
2023-03-26T07:56:59.129Z,93407.13
2023-03-26T07:58:21.240Z,93408.97
2023-03-26T07:59:29.482Z,93407.97
2023-03-26T08:00:38.645Z,93410.34
2023-03-26T08:01:41.333Z,93412.72
2023-03-26T08:02:38.019Z,93406.56
2023-03-26T08:03:52.638Z,93409.72
2023-03-26T08:05:04.319Z,93399.31
2023-03-26T08:06:10.413Z,93394.81
2023-03-26T08:07:28.819Z,93400.59
2023-03-26T08:08:47.459Z,93400.19
2023-03-26T08:09:46.911Z,93404.31
2023-03-26T08:10:49.340Z,93389.72
2023-03-26T08:11:54.541Z,93389.00
2023-03-26T08:13:06.743Z,93386.72
2023-03-26T08:14:22.729Z,93389.78
2023-03-26T08:15:25.787Z,93392.59
2023-03-26T08:16:30.625Z,93396.28
2023-03-26T08:17:34.612Z,93387.88
2023-03-26T08:18:44.801Z,93390.63
2023-03-26T08:20:20.475Z,93397.75
2023-03-26T08:21:26.419Z,93389.75
2023-03-26T08:22:36.802Z,93389.50
2023-03-26T08:23:36.392Z,93391.00
2023-03-26T08:25:01.510Z,93396.69
2023-03-26T08:26:19.770Z,93396.03
2023-03-26T08:27:37.788Z,93397.81
2023-03-26T08:29:04.276Z,93415.47
2023-03-26T08:30:18.944Z,93387.38
2023-03-26T08:31:18.044Z,93386.63
2023-03-26T08:32:17.458Z,93384.41
2023-03-26T08:33:21.524Z,93382.72
2023-03-26T08:34:18.152Z,93393.00
2023-03-26T08:35:15.835Z,93398.09
2023-03-26T08:36:12.528Z,93392.13
2023-03-26T08:37:09.892Z,93392.13
2023-03-26T08:38:06.501Z,93390.31
2023-03-26T08:39:04.161Z,93374.22
2023-03-26T08:40:00.831Z,93399.63
2023-03-26T08:41:06.520Z,93314.25
2023-03-26T08:42:24.169Z,93397.59
2023-03-26T08:43:29.744Z,93405.69
2023-03-26T08:44:38.427Z,93399.31
2023-03-26T08:45:52.466Z,93399.38
2023-03-26T08:47:27.474Z,93399.09
2023-03-26T08:48:42.968Z,93406.97
2023-03-26T08:50:16.976Z,93403.19
2023-03-26T08:51:13.621Z,93405.34
2023-03-26T08:52:38.263Z,93402.44
2023-03-26T08:54:19.672Z,93399.16
2023-03-26T08:55:22.204Z,93398.13
2023-03-26T08:56:18.702Z,93398.69
2023-03-26T08:57:27.824Z,93403.22
2023-03-26T08:58:36.530Z,93398.97
2023-03-26T09:00:12.451Z,93406.56
2023-03-26T09:01:27.157Z,93407.16
2023-03-26T09:02:26.777Z,93404.56
2023-03-26T09:03:27.898Z,93406.66
2023-03-26T09:04:42.667Z,93403.50
2023-03-26T09:06:03.138Z,93403.78
2023-03-26T09:07:09.927Z,93401.19
2023-03-26T09:08:21.032Z,93374.00
2023-03-26T09:09:35.797Z,93406.44
2023-03-26T09:10:53.466Z,93401.69
2023-03-26T09:11:56.439Z,93409.91
2023-03-26T09:13:15.347Z,93403.19
2023-03-26T09:14:48.284Z,93400.44
2023-03-26T09:15:54.067Z,93400.53
2023-03-26T09:17:18.356Z,93399.03
2023-03-26T09:18:37.154Z,93394.34
2023-03-26T09:20:15.464Z,93389.47
2023-03-26T09:21:32.214Z,93389.53
2023-03-26T09:23:02.934Z,93385.38
2023-03-26T09:23:59.622Z,93376.75
2023-03-26T09:25:25.277Z,93369.28
2023-03-26T09:26:25.046Z,93380.34
2023-03-26T09:27:39.692Z,93371.66
2023-03-26T09:29:00.873Z,93377.94
2023-03-26T09:30:12.655Z,93378.00
2023-03-26T09:31:46.250Z,93372.03
2023-03-26T09:33:09.842Z,93380.47
2023-03-26T09:34:32.238Z,93375.78
2023-03-26T09:35:38.011Z,93373.69
2023-03-26T09:36:46.509Z,93366.44
2023-03-26T09:37:59.511Z,93363.66
2023-03-26T09:39:03.185Z,93364.75
2023-03-26T09:40:19.227Z,93367.19
2023-03-26T09:41:19.605Z,93363.19
2023-03-26T09:42:24.373Z,93358.41
2023-03-26T09:43:24.165Z,93365.00
2023-03-26T09:45:10.534Z,93358.94
2023-03-26T09:46:16.287Z,93354.00
2023-03-26T09:47:31.846Z,93360.13
2023-03-26T09:49:04.922Z,93342.22
2023-03-26T09:50:27.278Z,93346.47
2023-03-26T09:51:36.907Z,93347.59
2023-03-26T09:53:01.300Z,93351.06
2023-03-26T09:54:28.606Z,93351.31
2023-03-26T09:55:31.160Z,93345.19
2023-03-26T09:56:27.661Z,93346.75
2023-03-26T09:57:27.074Z,93337.88
2023-03-26T09:58:32.460Z,93345.09
2023-03-26T09:59:41.262Z,93343.25
2023-03-26T10:00:49.992Z,93340.50
2023-03-26T10:02:05.611Z,93334.38
2023-03-26T10:03:11.180Z,93337.47
2023-03-26T10:04:26.951Z,93328.31
2023-03-26T10:05:34.433Z,93334.56
2023-03-26T10:06:41.488Z,93327.50
2023-03-26T10:07:40.642Z,93321.88
2023-03-26T10:08:49.209Z,93322.59
2023-03-26T10:10:00.982Z,93329.50
2023-03-26T10:11:07.892Z,93328.41
2023-03-26T10:12:31.541Z,93285.41
2023-03-26T10:13:50.437Z,93312.97
2023-03-26T10:15:08.905Z,93317.66
2023-03-26T10:16:21.428Z,93325.28
2023-03-26T10:17:48.678Z,93316.50
2023-03-26T10:19:04.520Z,93314.59
2023-03-26T10:20:28.809Z,93306.41
2023-03-26T10:21:48.646Z,93306.47
2023-03-26T10:23:13.176Z,93292.59
2023-03-26T10:24:12.444Z,93283.72
2023-03-26T10:25:21.124Z,93299.97
2023-03-26T10:26:29.276Z,93295.31
2023-03-26T10:27:42.457Z,93273.09
2023-03-26T10:28:46.919Z,93286.84
2023-03-26T10:30:12.666Z,93281.03
2023-03-26T10:31:39.277Z,93190.72
2023-03-26T10:32:43.309Z,93269.78
2023-03-26T10:34:06.391Z,93267.13
2023-03-26T10:35:21.338Z,93267.13
2023-03-26T10:36:25.842Z,93279.53
2023-03-26T10:37:48.502Z,93284.22
2023-03-26T10:39:37.216Z,93271.22
2023-03-26T10:41:07.990Z,93271.53
2023-03-26T10:42:19.848Z,93264.63
2023-03-26T10:44:08.765Z,93266.47
2023-03-26T10:45:11.695Z,93261.16
2023-03-26T10:46:08.280Z,93271.16
2023-03-26T10:47:39.083Z,93218.44
2023-03-26T10:49:09.675Z,93252.31
2023-03-26T10:50:23.131Z,93259.78
2023-03-26T10:51:20.763Z,93245.50
2023-03-26T10:52:27.259Z,93198.78
2023-03-26T10:53:47.195Z,93254.63
2023-03-26T10:55:14.622Z,93258.28
2023-03-26T10:56:21.954Z,93261.31
2023-03-26T10:57:53.887Z,93251.41
2023-03-26T10:58:50.689Z,93245.88
2023-03-26T10:59:47.433Z,93249.13
2023-03-26T11:00:55.668Z,93241.25
2023-03-26T11:02:20.690Z,93218.38
2023-03-26T11:03:52.626Z,93251.72
2023-03-26T11:04:49.221Z,93250.13
2023-03-26T11:06:04.366Z,93245.47
2023-03-26T11:07:16.431Z,93245.59
2023-03-26T11:08:43.748Z,93243.59
2023-03-26T11:09:54.080Z,93240.50
2023-03-26T11:11:03.973Z,93229.38
2023-03-26T11:12:27.888Z,93238.50
2023-03-26T11:13:54.379Z,93231.84
2023-03-26T11:15:02.485Z,93225.06
2023-03-26T11:16:04.736Z,93229.59
2023-03-26T11:17:14.812Z,93225.22
2023-03-26T11:18:42.093Z,93219.88
2023-03-26T11:19:54.860Z,93227.00
2023-03-26T11:21:20.457Z,93212.03
2023-03-26T11:22:32.518Z,93231.25
2023-03-26T11:23:34.950Z,93194.09
2023-03-26T11:24:46.542Z,93220.16
2023-03-26T11:25:57.893Z,93222.13
2023-03-26T11:26:56.838Z,93219.50
2023-03-26T11:27:53.442Z,93215.72
2023-03-26T11:29:31.664Z,93204.44
2023-03-26T11:30:32.493Z,93215.91
2023-03-26T11:31:32.022Z,93213.66
2023-03-26T11:32:42.654Z,93214.66
2023-03-26T11:33:47.407Z,93206.75
2023-03-26T11:35:06.260Z,93203.88
2023-03-26T11:36:08.910Z,93206.03
2023-03-26T11:37:08.670Z,93204.88
2023-03-26T11:38:39.397Z,93199.44
2023-03-26T11:39:49.805Z,93185.38
2023-03-26T11:40:51.045Z,93174.75
2023-03-26T11:41:52.755Z,93196.31
2023-03-26T11:42:54.479Z,93187.84
2023-03-26T11:44:16.850Z,93190.50
2023-03-26T11:45:24.196Z,93158.72
2023-03-26T11:46:25.120Z,93185.25
2023-03-26T11:47:30.987Z,93141.25
2023-03-26T11:48:27.870Z,93183.28
2023-03-26T11:49:26.362Z,93177.59
2023-03-26T11:50:30.561Z,93175.47
2023-03-26T11:51:27.615Z,93178.81
2023-03-26T11:52:26.704Z,93168.78
2023-03-26T11:53:29.250Z,93169.09
2023-03-26T11:54:25.729Z,93169.19
2023-03-26T11:55:24.271Z,93141.91
2023-03-26T11:57:05.888Z,93127.63
2023-03-26T11:58:06.028Z,93160.25
2023-03-26T11:59:21.817Z,93173.78
2023-03-26T12:00:23.026Z,93148.78
2023-03-26T12:01:44.312Z,93155.34
2023-03-26T12:02:41.856Z,93156.75
2023-03-26T12:03:40.525Z,93150.22
2023-03-26T12:04:45.788Z,93142.03
2023-03-26T12:05:51.952Z,93145.63
2023-03-26T12:07:05.187Z,93149.97
2023-03-26T12:08:19.700Z,93152.09
2023-03-26T12:09:18.673Z,93147.06
2023-03-26T12:10:23.216Z,93150.06
2023-03-26T12:11:27.293Z,93134.03
2023-03-26T12:12:34.095Z,93145.22
2023-03-26T12:13:37.373Z,93138.75
2023-03-26T12:14:35.538Z,93138.16
2023-03-26T12:15:32.361Z,93113.88
2023-03-26T12:16:29.484Z,93129.28
2023-03-26T12:17:37.349Z,93124.50
2023-03-26T12:18:34.334Z,93130.88
2023-03-26T12:19:38.259Z,93128.84
2023-03-26T12:20:36.867Z,93123.09
2023-03-26T12:21:48.499Z,93127.25
2023-03-26T12:22:47.893Z,93132.66
2023-03-26T12:23:54.021Z,93124.78